createdAt,value
2023-04-15T00:00:40.384Z,40.46
2023-04-15T00:03:07.379Z,40.54
2023-04-15T00:05:34.389Z,40.52
2023-04-15T00:08:01.416Z,40.43
2023-04-15T00:10:28.069Z,40.54
2023-04-15T00:12:54.460Z,40.58
2023-04-15T00:15:20.901Z,40.61
2023-04-15T00:17:47.834Z,40.74
2023-04-15T00:20:14.570Z,40.81
2023-04-15T00:22:40.976Z,40.96
2023-04-15T00:25:07.541Z,41.15
2023-04-15T00:27:34.103Z,40.92
2023-04-15T00:30:00.521Z,41.09
2023-04-15T00:32:27.287Z,41.00
2023-04-15T00:34:53.826Z,41.16
2023-04-15T00:37:20.262Z,41.15
2023-04-15T00:39:46.712Z,41.23
2023-04-15T00:42:13.405Z,41.23
2023-04-15T00:44:39.921Z,41.21
2023-04-15T00:47:06.619Z,41.28
2023-04-15T00:49:33.185Z,41.33
2023-04-15T00:51:59.627Z,41.17
2023-04-15T00:54:26.606Z,41.21
2023-04-15T00:56:52.975Z,41.17
2023-04-15T00:59:20.188Z,41.06
2023-04-15T01:01:47.052Z,41.18
2023-04-15T01:04:13.895Z,41.12
2023-04-15T01:06:41.124Z,41.06
2023-04-15T01:09:07.566Z,41.16
2023-04-15T01:11:34.458Z,41.19
2023-04-15T01:14:00.989Z,41.23
2023-04-15T01:16:28.807Z,41.19
2023-04-15T01:18:55.893Z,41.27
2023-04-15T01:21:22.504Z,41.33
2023-04-15T01:23:49.280Z,41.36
2023-04-15T01:26:16.793Z,41.36
2023-04-15T01:28:43.576Z,41.36
2023-04-15T01:31:11.728Z,41.36
2023-04-15T01:33:38.546Z,41.32
2023-04-15T01:36:06.157Z,41.29
2023-04-15T01:38:33.321Z,41.28
2023-04-15T01:40:59.845Z,41.41
2023-04-15T01:43:26.637Z,41.27
2023-04-15T01:45:53.050Z,41.19
2023-04-15T01:48:19.661Z,41.27
2023-04-15T01:50:46.506Z,41.27
2023-04-15T01:53:12.951Z,41.20
2023-04-15T01:55:39.401Z,41.30
2023-04-15T01:58:06.180Z,41.20
2023-04-15T02:00:32.717Z,41.25
2023-04-15T02:02:59.455Z,41.17
2023-04-15T02:05:26.002Z,41.21
2023-04-15T02:07:52.522Z,41.26
2023-04-15T02:10:18.992Z,41.13
2023-04-15T02:12:45.461Z,41.13
2023-04-15T02:15:12.119Z,41.29
2023-04-15T02:17:38.742Z,41.22
2023-04-15T02:20:08.799Z,41.28
2023-04-15T02:22:35.282Z,41.38
2023-04-15T02:25:01.763Z,41.33
2023-04-15T02:27:28.963Z,41.34
2023-04-15T02:29:55.390Z,41.48
2023-04-15T02:32:24.402Z,41.46
2023-04-15T02:34:51.227Z,41.42
2023-04-15T02:37:19.243Z,41.40
2023-04-15T02:39:45.926Z,41.52
2023-04-15T02:42:13.317Z,41.58
2023-04-15T02:44:39.730Z,41.63
2023-04-15T02:47:07.152Z,41.39
2023-04-15T02:49:33.899Z,41.67
2023-04-15T02:52:00.664Z,41.53
2023-04-15T02:54:29.963Z,41.47
2023-04-15T02:56:56.764Z,41.63
2023-04-15T02:59:23.236Z,41.58
2023-04-15T03:01:49.841Z,41.41
2023-04-15T03:04:16.834Z,41.48
2023-04-15T03:06:43.437Z,41.43
2023-04-15T03:09:10.005Z,41.54
2023-04-15T03:11:40.629Z,41.46
2023-04-15T03:14:07.104Z,41.54
2023-04-15T03:16:33.525Z,41.41
2023-04-15T03:19:00.170Z,41.49
2023-04-15T03:21:26.841Z,41.49
2023-04-15T03:23:53.338Z,41.51
2023-04-15T03:26:29.358Z,41.39
2023-04-15T03:28:56.147Z,41.45
2023-04-15T03:31:22.668Z,41.56
2023-04-15T03:33:49.114Z,41.48
2023-04-15T03:36:15.961Z,41.46
2023-04-15T03:38:42.713Z,41.47
2023-04-15T03:41:09.579Z,41.47
2023-04-15T03:43:36.009Z,41.55
2023-04-15T03:46:02.650Z,41.48
2023-04-15T03:48:29.087Z,41.49
2023-04-15T03:50:55.455Z,41.47
2023-04-15T03:53:22.101Z,41.54
2023-04-15T03:55:48.519Z,41.50
2023-04-15T03:58:14.990Z,41.50
2023-04-15T04:00:41.600Z,41.46
2023-04-15T04:03:08.457Z,41.55
2023-04-15T04:05:37.283Z,41.53
2023-04-15T04:08:03.705Z,41.57
2023-04-15T04:10:30.185Z,41.51
2023-04-15T04:12:56.684Z,41.59
2023-04-15T04:15:23.172Z,41.67
2023-04-15T04:17:49.689Z,41.75
2023-04-15T04:20:16.196Z,42.00
2023-04-15T04:22:42.623Z,41.97
2023-04-15T04:25:10.361Z,41.85
2023-04-15T04:27:36.914Z,41.92
2023-04-15T04:30:03.564Z,41.83
2023-04-15T04:32:30.215Z,41.87
2023-04-15T04:34:56.670Z,41.69
2023-04-15T04:37:23.652Z,41.84
2023-04-15T04:39:50.248Z,41.64
2023-04-15T04:42:16.772Z,41.70
2023-04-15T04:44:43.481Z,41.81
2023-04-15T04:47:09.892Z,41.73
2023-04-15T04:49:36.896Z,41.83
2023-04-15T04:52:03.402Z,41.86
2023-04-15T04:54:31.232Z,41.87
2023-04-15T04:56:57.898Z,41.82
2023-04-15T04:59:24.598Z,41.90
2023-04-15T05:01:51.456Z,41.74
2023-04-15T05:04:17.912Z,41.86
2023-04-15T05:06:44.348Z,41.84
2023-04-15T05:09:11.061Z,41.90
2023-04-15T05:11:37.503Z,41.82
2023-04-15T05:14:04.048Z,41.86
2023-04-15T05:16:30.500Z,41.79
2023-04-15T05:18:56.943Z,41.66
2023-04-15T05:21:23.544Z,41.84
2023-04-15T05:23:50.029Z,41.86
2023-04-15T05:26:16.526Z,41.79
2023-04-15T05:28:43.016Z,41.75
2023-04-15T05:31:09.476Z,41.73
2023-04-15T05:33:36.510Z,41.77
2023-04-15T05:36:02.917Z,41.71
2023-04-15T05:38:29.306Z,41.75
2023-04-15T05:40:55.926Z,41.73
2023-04-15T05:43:22.334Z,41.74
2023-04-15T05:45:48.763Z,41.91
2023-04-15T05:48:15.229Z,41.84
2023-04-15T05:50:42.353Z,41.97
2023-04-15T05:53:09.110Z,41.78
2023-04-15T05:55:35.662Z,41.95
2023-04-15T05:58:02.156Z,41.95
2023-04-15T06:00:28.815Z,41.92
2023-04-15T06:02:56.606Z,41.93
2023-04-15T06:05:23.162Z,41.87
2023-04-15T06:07:50.314Z,41.89
2023-04-15T06:10:16.861Z,42.03
2023-04-15T06:12:43.224Z,41.84
2023-04-15T06:15:12.795Z,41.88
2023-04-15T06:17:39.276Z,41.93
2023-04-15T06:20:05.953Z,41.88
2023-04-15T06:22:32.385Z,41.92
2023-04-15T06:24:58.820Z,42.03
2023-04-15T06:27:25.268Z,41.97
2023-04-15T06:29:51.678Z,41.90
2023-04-15T06:32:18.067Z,41.99
2023-04-15T06:34:44.467Z,41.89
2023-04-15T06:37:15.836Z,41.95
2023-04-15T06:39:43.042Z,41.78
2023-04-15T06:42:09.899Z,41.87
2023-04-15T06:44:37.140Z,41.86
2023-04-15T06:47:03.825Z,41.87
2023-04-15T06:49:30.235Z,41.83
2023-04-15T06:51:56.713Z,41.75
2023-04-15T06:54:23.547Z,41.76
2023-04-15T06:56:50.054Z,41.76
2023-04-15T06:59:16.793Z,41.76
2023-04-15T07:01:43.307Z,41.92
2023-04-15T07:04:09.778Z,41.95
2023-04-15T07:06:36.224Z,41.89
2023-04-15T07:09:03.655Z,41.78
2023-04-15T07:11:30.842Z,41.75
2023-04-15T07:14:00.005Z,41.71
2023-04-15T07:16:28.631Z,41.66
2023-04-15T07:18:56.217Z,41.66
2023-04-15T07:21:22.736Z,41.89
2023-04-15T07:23:49.184Z,41.71
2023-04-15T07:26:15.605Z,41.83
2023-04-15T07:28:41.979Z,41.63
2023-04-15T07:31:08.844Z,41.50
2023-04-15T07:33:35.317Z,41.72
2023-04-15T07:36:01.713Z,41.60
2023-04-15T07:38:28.384Z,41.63
2023-04-15T07:40:54.811Z,41.69
2023-04-15T07:43:22.025Z,41.68
2023-04-15T07:45:48.499Z,41.64
2023-04-15T07:48:14.949Z,41.85
2023-04-15T07:50:41.361Z,41.86
2023-04-15T07:53:07.798Z,41.74
2023-04-15T07:55:34.252Z,41.72
2023-04-15T07:58:00.722Z,41.72
2023-04-15T08:00:27.430Z,41.74
2023-04-15T08:02:54.197Z,41.65
2023-04-15T08:05:20.893Z,41.68
2023-04-15T08:07:47.451Z,41.74
2023-04-15T08:10:14.488Z,41.73
2023-04-15T08:12:41.609Z,41.92
2023-04-15T08:15:08.443Z,41.87
2023-04-15T08:17:35.350Z,42.03
2023-04-15T08:20:01.912Z,41.89
2023-04-15T08:22:28.804Z,41.97
2023-04-15T08:24:55.305Z,41.94
2023-04-15T08:27:22.072Z,42.10
2023-04-15T08:29:48.563Z,42.29
2023-04-15T08:32:15.309Z,41.85
2023-04-15T08:34:42.138Z,41.67
2023-04-15T08:37:09.628Z,41.73
2023-04-15T08:39:38.225Z,41.74
2023-04-15T08:42:07.650Z,42.00
2023-04-15T08:44:35.124Z,41.90
2023-04-15T08:47:02.644Z,41.56
2023-04-15T08:49:29.786Z,41.91
2023-04-15T08:51:58.451Z,41.95
2023-04-15T08:54:25.009Z,42.20
2023-04-15T08:56:52.561Z,42.12
2023-04-15T08:59:21.307Z,41.96
2023-04-15T09:01:48.474Z,41.60
2023-04-15T09:04:14.982Z,41.32
2023-04-15T09:06:41.627Z,41.77
2023-04-15T09:09:08.154Z,41.77
2023-04-15T09:11:34.758Z,41.69
2023-04-15T09:14:01.153Z,41.49
2023-04-15T09:16:27.716Z,41.62
2023-04-15T09:18:54.454Z,41.52
2023-04-15T09:21:21.194Z,41.44
2023-04-15T09:24:13.869Z,41.31
2023-04-15T09:26:40.547Z,41.33
2023-04-15T09:29:07.638Z,41.39
2023-04-15T09:31:34.248Z,41.52
2023-04-15T09:34:01.391Z,41.72
2023-04-15T09:36:31.676Z,41.64
2023-04-15T09:38:58.914Z,41.86
2023-04-15T09:41:25.693Z,41.88
2023-04-15T09:43:52.465Z,41.86
2023-04-15T09:46:19.060Z,41.82
2023-04-15T09:48:45.526Z,41.98
2023-04-15T09:51:12.040Z,41.77
2023-04-15T09:53:38.505Z,41.70
2023-04-15T09:56:07.773Z,41.70
2023-04-15T09:58:35.202Z,41.43
2023-04-15T10:01:04.179Z,41.69
2023-04-15T10:03:32.001Z,41.48
2023-04-15T10:05:59.540Z,41.58
2023-04-15T10:08:27.902Z,41.37
2023-04-15T10:10:54.915Z,41.50
2023-04-15T10:13:23.747Z,41.51
2023-04-15T10:16:02.652Z,41.39
2023-04-15T10:18:29.682Z,41.30
2023-04-15T10:20:56.199Z,41.32
2023-04-15T10:23:23.313Z,41.22
2023-04-15T10:25:51.713Z,41.23
2023-04-15T10:28:18.137Z,41.41
2023-04-15T10:30:44.902Z,41.29
2023-04-15T10:33:11.640Z,41.32
2023-04-15T10:35:39.287Z,41.20
2023-04-15T10:38:25.958Z,41.37
2023-04-15T10:40:52.501Z,41.21
2023-04-15T10:43:27.059Z,41.10
2023-04-15T10:45:53.805Z,41.13
2023-04-15T10:48:20.573Z,41.30
2023-04-15T10:50:56.618Z,41.06
2023-04-15T10:53:32.942Z,41.20
2023-04-15T10:55:59.695Z,41.03
2023-04-15T10:58:26.213Z,41.10
2023-04-15T11:00:53.527Z,41.02
2023-04-15T11:03:39.357Z,41.12
2023-04-15T11:06:07.137Z,41.14
2023-04-15T11:08:52.290Z,41.15
2023-04-15T11:11:18.719Z,41.06
2023-04-15T11:13:49.440Z,41.10
2023-04-15T11:16:15.989Z,41.17
2023-04-15T11:18:42.831Z,41.10
2023-04-15T11:21:09.664Z,41.25
2023-04-15T11:23:36.108Z,41.01
2023-04-15T11:26:05.543Z,41.20
2023-04-15T11:28:32.388Z,41.05
2023-04-15T11:31:05.914Z,41.02
2023-04-15T11:33:32.419Z,41.01
2023-04-15T11:35:58.937Z,41.09
2023-04-15T11:38:25.366Z,41.03
2023-04-15T11:40:52.548Z,41.17
2023-04-15T11:43:21.030Z,41.15
2023-04-15T11:45:51.540Z,41.03
2023-04-15T11:48:18.780Z,41.16
2023-04-15T11:50:45.511Z,41.12
2023-04-15T11:53:13.630Z,41.26
2023-04-15T11:55:50.494Z,41.31
2023-04-15T11:58:17.045Z,41.25
2023-04-15T12:00:47.967Z,41.22
2023-04-15T12:03:17.301Z,41.27
2023-04-15T12:06:02.960Z,41.21
2023-04-15T12:08:48.431Z,41.35
2023-04-15T12:11:16.218Z,41.42
2023-04-15T12:13:49.753Z,41.29
2023-04-15T12:16:19.969Z,41.33
2023-04-15T12:18:47.176Z,41.31
2023-04-15T12:21:14.333Z,41.37
2023-04-15T12:23:49.058Z,41.23
2023-04-15T12:26:15.517Z,41.28
2023-04-15T12:28:44.981Z,41.45
2023-04-15T12:31:11.888Z,41.65
2023-04-15T12:33:38.426Z,41.51
2023-04-15T12:36:04.990Z,41.38
2023-04-15T12:38:34.065Z,41.42
2023-04-15T12:41:00.567Z,41.46
2023-04-15T12:43:27.700Z,41.48
2023-04-15T12:45:54.523Z,41.71
2023-04-15T12:48:21.210Z,41.45
2023-04-15T12:50:47.722Z,41.44
2023-04-15T12:53:14.089Z,41.59
2023-04-15T12:55:40.496Z,41.70
2023-04-15T12:58:07.061Z,41.72
2023-04-15T13:00:34.613Z,42.18
2023-04-15T13:03:01.048Z,42.86
2023-04-15T13:05:27.503Z,43.08
2023-04-15T13:07:53.873Z,43.18
2023-04-15T13:10:20.549Z,43.11
2023-04-15T13:12:49.357Z,42.93
2023-04-15T13:15:16.065Z,42.94
2023-04-15T13:17:42.635Z,42.96
2023-04-15T13:20:09.710Z,42.81
2023-04-15T13:22:36.152Z,42.80
2023-04-15T13:25:02.582Z,42.71
2023-04-15T13:27:29.040Z,42.78
2023-04-15T13:29:55.760Z,42.65
2023-04-15T13:32:22.254Z,42.71
2023-04-15T13:34:48.713Z,42.63
2023-04-15T13:37:15.577Z,42.51
2023-04-15T13:39:44.102Z,42.54
2023-04-15T13:42:10.832Z,42.63
2023-04-15T13:44:37.279Z,42.43
2023-04-15T13:47:03.740Z,42.56
2023-04-15T13:49:30.154Z,42.33
2023-04-15T13:51:56.563Z,42.41
2023-04-15T13:54:22.969Z,42.36
2023-04-15T13:56:49.426Z,42.34
2023-04-15T13:59:16.020Z,42.40
2023-04-15T14:01:43.774Z,42.44
2023-04-15T14:04:10.595Z,42.30
2023-04-15T14:06:37.406Z,42.46
2023-04-15T14:09:04.303Z,42.35
2023-04-15T14:11:30.959Z,42.25
2023-04-15T14:13:57.422Z,42.32
2023-04-15T14:16:23.884Z,42.26
2023-04-15T14:18:50.416Z,42.17
2023-04-15T14:21:16.781Z,42.18
2023-04-15T14:23:43.301Z,42.22
2023-04-15T14:26:09.834Z,42.08
2023-04-15T14:28:38.524Z,42.17
2023-04-15T14:31:05.112Z,42.07
2023-04-15T14:33:32.196Z,42.18
2023-04-15T14:35:58.625Z,42.16
2023-04-15T14:38:25.062Z,42.12
2023-04-15T14:40:51.446Z,42.09
2023-04-15T14:43:17.876Z,42.04
2023-04-15T14:45:45.432Z,42.02
2023-04-15T14:48:12.812Z,42.07
2023-04-15T14:50:39.932Z,42.05
2023-04-15T14:53:06.348Z,41.95
2023-04-15T14:55:33.389Z,41.92
2023-04-15T14:58:00.179Z,42.03
2023-04-15T15:00:26.601Z,42.11
2023-04-15T15:02:53.347Z,42.03
2023-04-15T15:05:20.014Z,42.04
2023-04-15T15:07:46.567Z,42.18
2023-04-15T15:10:13.221Z,42.20
2023-04-15T15:12:39.619Z,42.23
2023-04-15T15:15:15.664Z,42.21
2023-04-15T15:17:51.959Z,42.10
2023-04-15T15:20:19.296Z,42.12
2023-04-15T15:22:45.943Z,42.16
2023-04-15T15:25:12.393Z,42.09
2023-04-15T15:27:38.887Z,42.14
2023-04-15T15:30:06.823Z,42.27
2023-04-15T15:32:33.452Z,42.00
2023-04-15T15:34:59.873Z,42.07
2023-04-15T15:37:26.335Z,42.16
2023-04-15T15:39:53.322Z,41.98
2023-04-15T15:42:20.087Z,42.04
2023-04-15T15:44:46.595Z,41.92
2023-04-15T15:47:13.153Z,42.10
2023-04-15T15:49:39.862Z,41.93
2023-04-15T15:52:06.734Z,42.15
2023-04-15T15:54:33.179Z,41.98
2023-04-15T15:56:59.653Z,42.04
2023-04-15T15:59:26.084Z,42.02
2023-04-15T16:01:52.806Z,42.11
2023-04-15T16:04:19.539Z,42.07
2023-04-15T16:06:46.758Z,42.13
2023-04-15T16:09:13.379Z,42.22
2023-04-15T16:11:39.785Z,42.07
2023-04-15T16:14:06.193Z,42.03
2023-04-15T16:16:32.704Z,41.92
2023-04-15T16:18:59.226Z,42.01
2023-04-15T16:21:27.272Z,42.08
2023-04-15T16:23:53.959Z,41.95
2023-04-15T16:26:20.377Z,41.96
2023-04-15T16:28:46.855Z,41.89
2023-04-15T16:31:13.354Z,41.94
2023-04-15T16:33:39.815Z,41.85
2023-04-15T16:36:06.327Z,41.93
2023-04-15T16:38:32.757Z,41.96
2023-04-15T16:40:59.754Z,42.00
2023-04-15T16:43:26.294Z,41.97
2023-04-15T16:45:52.769Z,41.98
2023-04-15T16:48:19.795Z,42.10
2023-04-15T16:50:46.348Z,42.06
2023-04-15T16:53:12.869Z,42.18
2023-04-15T16:55:39.718Z,42.12
2023-04-15T16:58:07.981Z,42.28
2023-04-15T17:00:36.765Z,42.29
2023-04-15T17:03:03.606Z,42.26
2023-04-15T17:05:32.891Z,42.37
2023-04-15T17:07:59.406Z,42.29
2023-04-15T17:10:25.819Z,42.32
2023-04-15T17:12:52.627Z,42.55
2023-04-15T17:15:19.743Z,42.38
2023-04-15T17:17:46.204Z,42.26
2023-04-15T17:20:12.723Z,42.32
2023-04-15T17:22:39.183Z,42.37
2023-04-15T17:25:05.953Z,42.37
2023-04-15T17:27:32.396Z,42.34
2023-04-15T17:29:58.832Z,42.20
2023-04-15T17:32:26.396Z,42.21
2023-04-15T17:34:52.999Z,42.25
2023-04-15T17:37:19.478Z,42.25
2023-04-15T17:39:45.905Z,42.17
2023-04-15T17:42:12.836Z,42.31
2023-04-15T17:44:39.476Z,42.14
2023-04-15T17:47:05.931Z,42.12
2023-04-15T17:49:34.154Z,42.13
2023-04-15T17:52:00.668Z,42.08
2023-04-15T17:54:27.101Z,42.22
2023-04-15T17:56:53.710Z,42.25
2023-04-15T17:59:20.058Z,42.15
2023-04-15T18:01:46.548Z,42.14
2023-04-15T18:04:13.207Z,42.17
2023-04-15T18:06:39.723Z,42.06
2023-04-15T18:09:06.774Z,42.15
2023-04-15T18:11:33.523Z,42.08
2023-04-15T18:14:00.240Z,42.18
2023-04-15T18:16:26.704Z,42.16
2023-04-15T18:18:53.845Z,42.10
2023-04-15T18:21:20.353Z,42.11
2023-04-15T18:23:46.846Z,42.07
2023-04-15T18:26:13.588Z,42.15
2023-04-15T18:28:40.176Z,42.08
2023-04-15T18:31:06.665Z,42.20
2023-04-15T18:33:33.117Z,42.26
2023-04-15T18:35:59.546Z,42.28
2023-04-15T18:38:26.050Z,42.12
2023-04-15T18:40:52.456Z,42.14
2023-04-15T18:43:18.907Z,42.06
2023-04-15T18:45:45.432Z,42.15
2023-04-15T18:48:12.361Z,42.13
2023-04-15T18:50:38.848Z,42.05
2023-04-15T18:53:05.316Z,42.25
2023-04-15T18:55:31.811Z,42.07
2023-04-15T18:58:08.409Z,42.16
2023-04-15T19:00:36.599Z,42.16
2023-04-15T19:03:03.191Z,42.08
2023-04-15T19:05:30.210Z,42.07
2023-04-15T19:07:58.476Z,41.95
2023-04-15T19:10:27.937Z,42.07
2023-04-15T19:12:54.903Z,42.11
2023-04-15T19:15:21.383Z,42.09
2023-04-15T19:17:47.884Z,42.07
2023-04-15T19:20:14.298Z,42.12
2023-04-15T19:22:41.636Z,42.09
2023-04-15T19:25:08.215Z,41.96
2023-04-15T19:27:34.686Z,41.98
2023-04-15T19:30:02.011Z,42.06
2023-04-15T19:32:28.555Z,41.97
2023-04-15T19:34:55.031Z,42.06
2023-04-15T19:37:21.466Z,41.99
2023-04-15T19:39:47.928Z,41.97
2023-04-15T19:42:14.631Z,41.92
2023-04-15T19:44:42.893Z,41.93
2023-04-15T19:47:12.439Z,41.81
2023-04-15T19:49:38.913Z,41.88
2023-04-15T19:52:05.419Z,41.87
2023-04-15T19:54:32.402Z,41.88
2023-04-15T19:56:59.099Z,42.04
2023-04-15T19:59:25.830Z,41.98
2023-04-15T20:01:52.601Z,42.06
2023-04-15T20:04:19.313Z,41.99
2023-04-15T20:06:45.795Z,41.89
2023-04-15T20:09:12.445Z,41.90
2023-04-15T20:12:09.622Z,42.03
2023-04-15T20:14:25.680Z,42.00
2023-04-15T20:16:52.114Z,41.83
2023-04-15T20:19:18.554Z,41.97
2023-04-15T20:21:45.473Z,41.99
2023-04-15T20:24:11.949Z,42.07
2023-04-15T20:26:38.380Z,41.99
2023-04-15T20:29:05.036Z,41.93
2023-04-15T20:31:32.081Z,41.92
2023-04-15T20:33:58.563Z,41.92
2023-04-15T20:36:24.981Z,41.87
2023-04-15T20:38:51.515Z,41.88
2023-04-15T20:41:17.929Z,41.92
2023-04-15T20:43:44.391Z,41.81
2023-04-15T20:46:20.368Z,41.89
2023-04-15T20:48:48.021Z,41.90
2023-04-15T20:51:15.147Z,41.84
2023-04-15T20:53:42.208Z,41.92
2023-04-15T20:56:08.774Z,41.87
2023-04-15T20:58:35.148Z,41.93
2023-04-15T21:01:02.180Z,41.88
2023-04-15T21:03:28.953Z,42.00
2023-04-15T21:05:55.780Z,41.86
2023-04-15T21:08:29.079Z,41.88
2023-04-15T21:10:56.314Z,41.98
2023-04-15T21:13:23.108Z,41.95
2023-04-15T21:15:53.282Z,41.92
2023-04-15T21:18:22.931Z,42.01
2023-04-15T21:20:58.872Z,41.89
2023-04-15T21:23:25.759Z,41.82
2023-04-15T21:25:52.210Z,41.89
2023-04-15T21:28:18.638Z,41.86
2023-04-15T21:30:45.871Z,41.79
2023-04-15T21:33:12.331Z,41.87
2023-04-15T21:35:38.894Z,41.89
2023-04-15T21:38:05.407Z,41.78
2023-04-15T21:40:31.798Z,41.88
2023-04-15T21:42:58.240Z,41.91
2023-04-15T21:45:24.823Z,42.25
2023-04-15T21:48:00.802Z,43.07
2023-04-15T21:50:33.887Z,44.02
2023-04-15T21:53:00.355Z,44.64
2023-04-15T21:55:26.816Z,45.05
2023-04-15T21:57:53.572Z,45.45
2023-04-15T22:00:21.228Z,45.88
2023-04-15T22:02:47.751Z,45.72
2023-04-15T22:05:14.308Z,45.94
2023-04-15T22:07:41.421Z,46.22
2023-04-15T22:10:08.291Z,45.94
2023-04-15T22:12:34.735Z,45.82
2023-04-15T22:15:01.138Z,45.74
2023-04-15T22:17:27.711Z,45.82
2023-04-15T22:19:54.326Z,46.05
2023-04-15T22:22:20.841Z,46.39
2023-04-15T22:24:53.004Z,46.26
2023-04-15T22:27:19.430Z,46.25
2023-04-15T22:29:45.843Z,46.25
2023-04-15T22:32:12.296Z,46.31
2023-04-15T22:34:38.708Z,46.36
2023-04-15T22:37:05.159Z,46.26
2023-04-15T22:39:31.590Z,46.44
2023-04-15T22:41:58.018Z,46.24
2023-04-15T22:44:24.427Z,46.27
2023-04-15T22:46:51.781Z,46.35
2023-04-15T22:49:18.211Z,46.51
2023-04-15T22:51:44.671Z,46.66
2023-04-15T22:54:11.219Z,46.60
2023-04-15T22:56:37.666Z,46.50
2023-04-15T22:59:04.119Z,46.68
2023-04-15T23:01:31.947Z,46.70
2023-04-15T23:04:08.170Z,46.49
2023-04-15T23:06:35.900Z,46.65
2023-04-15T23:09:02.305Z,46.81
2023-04-15T23:11:28.856Z,47.06
2023-04-15T23:13:55.552Z,47.06
2023-04-15T23:16:22.118Z,47.10
2023-04-15T23:18:48.647Z,46.95
2023-04-15T23:21:15.137Z,46.98
2023-04-15T23:23:41.510Z,47.14
2023-04-15T23:26:07.930Z,46.99
2023-04-15T23:28:34.325Z,46.90
2023-04-15T23:31:00.883Z,46.99
2023-04-15T23:33:27.347Z,47.09
2023-04-15T23:35:53.777Z,47.07
2023-04-15T23:38:20.304Z,47.12
2023-04-15T23:40:46.982Z,47.03
2023-04-15T23:43:13.445Z,47.05
2023-04-15T23:45:40.326Z,46.99
2023-04-15T23:48:06.924Z,47.10
2023-04-15T23:50:33.492Z,47.15
2023-04-15T23:53:00.001Z,47.34
2023-04-15T23:55:26.471Z,47.25
2023-04-15T23:57:52.862Z,47.20
